Time;durP1;ratioP1;P1;durP2;ratioP2;P2;SDS_P1;SDS_P2;PMS_P1;PMS_P2;Temp;Humidity;BMP_temperature;BMP_pressure;BME280_temperature;BME280_humidity;BME280_pressure;Samples;Min_cycle;Max_cycle;Signal;HPM_P1;HPM_P2
2022/08/02 00:01:20;;;;;;;2.62;2.42;;;;;;;23.27;54.14;99771.66;4451702;32;33141;-79
2022/08/02 00:03:48;;;;;;;4.55;3.03;;;;;;;23.10;54.73;99762.50;4451625;32;33640;-79
2022/08/02 00:06:16;;;;;;;2.37;2.17;;;;;;;23.11;54.54;99759.66;4451430;32;33278;-79
2022/08/02 00:08:43;;;;;;;2.70;2.50;;;;;;;23.14;54.47;99767.47;4451525;32;32282;-79
2022/08/02 00:27:59;;;;;;;3.33;3.00;;;;;;;23.44;54.31;99757.37;4284031;33;88378;-80
2022/08/02 00:30:42;;;;;;;2.80;2.55;;;;;;;22.78;55.85;99760.19;4279050;33;34284;-79
2022/08/02 00:33:24;;;;;;;4.22;3.33;;;;;;;22.57;56.36;99763.91;4258982;33;34268;-79
2022/08/02 00:36:07;;;;;;;2.90;2.70;;;;;;;22.43;56.76;99764.37;4281550;33;33015;-80
2022/08/02 00:38:49;;;;;;;4.12;2.78;;;;;;;22.51;56.49;99769.88;4267707;33;34186;-80
2022/08/02 00:41:47;;;;;;;3.40;3.03;;;;;;;22.57;56.40;99769.31;4275895;33;32469;-79
2022/08/02 00:44:30;;;;;;;3.67;2.85;;;;;;;22.62;56.11;99766.19;4273644;33;34539;-79
2022/08/02 00:47:12;;;;;;;3.97;2.60;;;;;;;22.53;56.32;99773.28;4288628;33;33553;-79
2022/08/02 00:49:54;;;;;;;2.58;2.40;;;;;;;22.69;55.91;99778.03;4292138;33;33962;-79
2022/08/02 00:52:36;;;;;;;3.53;2.92;;;;;;;22.55;56.40;99784.75;4289514;33;34922;-79
2022/08/02 00:55:18;;;;;;;4.80;3.17;;;;;;;22.52;56.77;99786.88;4291834;33;35071;-80
2022/08/02 00:58:00;;;;;;;3.42;2.80;;;;;;;22.55;56.48;99786.56;4278200;33;34543;-80
2022/08/02 01:00:42;;;;;;;3.47;2.90;;;;;;;22.50;56.41;99784.31;4288903;33;34456;-79
2022/08/02 01:03:24;;;;;;;3.85;3.00;;;;;;;22.31;56.97;99785.19;4317544;32;33754;-80
2022/08/02 01:05:52;;;;;;;4.37;3.25;;;;;;;22.23;57.11;99780.53;4434236;32;34386;-79
2022/08/02 01:08:40;;;;;;;4.28;3.03;;;;;;;22.49;56.45;99777.22;4451762;32;33488;-80
2022/08/02 01:11:10;;;;;;;4.00;3.33;;;;;;;22.34;56.85;99784.06;4434871;32;32291;-80
2022/08/02 01:13:37;;;;;;;3.28;2.97;;;;;;;22.15;57.50;99783.06;4450374;32;33266;-80
2022/08/02 01:16:13;;;;;;;3.87;2.60;;;;;;;22.16;57.49;99774.00;4438190;32;33885;-79
2022/08/02 01:18:44;;;;;;;3.22;2.87;;;;;;;22.28;57.16;99773.88;4450939;32;33698;-80
2022/08/02 01:21:32;;;;;;;3.72;3.03;;;;;;;22.29;57.04;99776.41;4450978;32;33393;-80
2022/08/02 01:24:22;;;;;;;3.00;2.60;;;;;;;22.27;57.30;99782.94;4438307;32;33920;-80
2022/08/02 01:27:03;;;;;;;7.20;3.00;;;;;;;22.29;57.24;99786.31;4448943;32;34338;-80
2022/08/02 01:29:34;;;;;;;4.57;2.60;;;;;;;22.20;57.28;99782.63;4443118;32;34653;-80
2022/08/02 01:32:10;;;;;;;3.53;2.90;;;;;;;22.10;57.55;99777.22;4417445;32;32973;-80
2022/08/02 01:34:53;;;;;;;3.10;2.80;;;;;;;22.09;57.46;99780.06;4421497;32;33835;-80
2022/08/02 01:37:42;;;;;;;4.18;3.03;;;;;;;22.15;57.27;99787.59;4435275;32;34648;-80
2022/08/02 01:40:20;;;;;;;3.28;2.87;;;;;;;22.13;57.29;99785.06;4433917;32;34438;-80
2022/08/02 01:42:50;;;;;;;3.00;2.70;;;;;;;22.16;57.19;99787.44;4400957;32;31933;-80
2022/08/02 01:45:20;;;;;;;4.07;3.28;;;;;;;21.98;57.78;99784.59;4410182;32;32830;-79
2022/08/02 01:47:48;;;;;;;3.17;2.75;;;;;;;21.94;57.97;99790.41;4422452;32;33913;-79
2022/08/02 01:50:17;;;;;;;4.93;3.10;;;;;;;21.96;57.89;99796.47;4420471;32;33335;-79
2022/08/02 01:52:47;;;;;;;3.30;3.00;;;;;;;21.94;58.08;99793.09;4422426;32;33791;-80
2022/08/02 01:55:26;;;;;;;3.67;2.87;;;;;;;21.99;57.96;99801.56;4422554;32;33899;-80
2022/08/02 01:58:04;;;;;;;3.62;3.33;;;;;;;21.82;58.70;99805.78;4422861;32;34101;-80
2022/08/02 02:00:34;;;;;;;3.20;3.00;;;;;;;21.67;59.44;99809.84;4409777;32;33100;-80
2022/08/02 02:03:04;;;;;;;3.58;3.33;;;;;;;21.72;58.86;99811.13;4410014;32;32244;-80
2022/08/02 02:05:34;;;;;;;3.75;3.40;;;;;;;21.67;58.93;99808.03;4404169;32;33226;-80
2022/08/02 02:08:03;;;;;;;4.65;3.15;;;;;;;21.73;58.67;99812.84;4422660;32;33914;-80
2022/08/02 02:10:32;;;;;;;3.80;3.40;;;;;;;21.80;58.27;99815.84;4408114;32;34485;-80
2022/08/02 02:13:04;;;;;;;3.35;3.00;;;;;;;21.78;58.33;99814.25;4419292;32;32886;-80
2022/08/02 02:15:32;;;;;;;4.40;3.30;;;;;;;21.69;58.68;99815.94;4422678;32;34842;-81
2022/08/02 02:18:01;;;;;;;4.40;3.30;;;;;;;21.77;58.34;99818.78;4409891;32;33279;-81
2022/08/02 02:20:41;;;;;;;3.30;3.00;;;;;;;21.76;58.31;99827.00;4411468;32;32446;-81
2022/08/02 02:23:10;;;;;;;2.90;2.60;;;;;;;21.59;58.77;99826.66;4422716;32;33424;-81
2022/08/02 02:25:40;;;;;;;3.45;3.08;;;;;;;21.53;58.92;99829.91;4422888;32;33927;-81
2022/08/02 02:28:17;;;;;;;3.95;3.53;;;;;;;21.30;59.83;99817.63;4429192;32;33627;-81
2022/08/02 02:30:48;;;;;;;3.70;3.30;;;;;;;21.26;60.04;99818.87;4425401;32;33044;-81
2022/08/02 02:33:17;;;;;;;3.40;3.05;;;;;;;21.22;60.02;99816.47;4425596;32;33381;-81
2022/08/02 02:35:47;;;;;;;3.70;3.37;;;;;;;21.37;59.61;99818.81;4437465;32;34382;-79
2022/08/02 02:38:17;;;;;;;3.83;3.47;;;;;;;21.32;59.92;99815.69;4450555;32;33499;-79
2022/08/02 02:40:48;;;;;;;4.43;3.50;;;;;;;21.39;59.64;99824.91;4412387;32;33421;-79
2022/08/02 02:43:16;;;;;;;4.17;3.77;;;;;;;21.42;59.40;99824.63;4449003;32;34005;-80
2022/08/02 02:45:44;;;;;;;5.97;3.80;;;;;;;21.43;59.31;99827.19;4436702;32;33644;-80
2022/08/02 02:48:13;;;;;;;5.03;3.30;;;;;;;21.27;60.09;99836.66;4437718;32;33952;-79
2022/08/02 02:50:42;;;;;;;4.12;3.72;;;;;;;21.42;59.55;99827.31;4424779;32;33315;-79
2022/08/02 02:53:10;;;;;;;4.65;3.35;;;;;;;21.15;60.20;99828.72;4424445;32;33677;-79
2022/08/02 02:55:39;;;;;;;5.32;4.05;;;;;;;21.13;60.29;99824.47;4437285;32;32731;-79
2022/08/02 02:58:27;;;;;;;4.97;3.80;;;;;;;21.13;60.22;99819.13;4437516;32;33666;-80
2022/08/02 03:04:09;;;;;;;5.78;4.20;;;;;;;21.42;59.48;99817.44;4443046;32;32131;-80
2022/08/02 03:06:38;;;;;;;3.87;3.55;;;;;;;21.39;60.11;99819.53;4436375;32;33395;-79
2022/08/02 03:09:07;;;;;;;4.30;3.40;;;;;;;21.16;60.65;99814.31;4424649;32;34291;-80
2022/08/02 03:11:39;;;;;;;9.07;3.80;;;;;;;21.16;60.51;99811.63;4437266;32;33534;-80
2022/08/02 03:14:11;;;;;;;3.92;3.60;;;;;;;21.25;60.18;99801.91;4449839;32;32599;-79
2022/08/02 03:16:42;;;;;;;;;;;;;;;21.26;60.01;99798.22;4424615;32;32693;-79
2022/08/02 03:19:10;;;;;;;4.70;3.55;;;;;;;21.34;59.58;99794.91;4437467;32;32759;-80
2022/08/02 03:21:38;;;;;;;4.53;3.67;;;;;;;21.20;60.22;99794.25;4421246;32;32953;-79
2022/08/02 03:24:06;;;;;;;4.93;4.43;;;;;;;21.26;60.38;99797.38;4449781;32;33283;-80
2022/08/02 03:26:34;;;;;;;4.40;3.85;;;;;;;21.26;60.34;99808.13;4424241;32;33026;-80
2022/08/02 03:29:04;;;;;;;4.07;3.40;;;;;;;21.12;60.77;99810.19;4418132;32;33849;-80
2022/08/02 03:31:40;;;;;;;4.60;4.20;;;;;;;21.21;60.38;99811.22;4436395;32;33379;-81
2022/08/02 03:34:08;;;;;;;6.53;4.22;;;;;;;21.21;60.53;99816.59;4436622;32;32190;-81
2022/08/02 03:36:37;;;;;;;4.18;3.78;;;;;;;21.25;60.35;99811.81;4414839;32;32400;-81
2022/08/02 03:39:05;;;;;;;7.35;4.20;;;;;;;21.02;61.20;99821.84;4411944;32;32953;-81
2022/08/02 03:41:35;;;;;;;5.03;3.97;;;;;;;21.17;60.65;99824.09;4427549;32;33214;-80
2022/08/02 03:44:03;;;;;;;5.12;3.72;;;;;;;21.17;60.70;99821.41;4435344;32;34115;-80
2022/08/02 03:46:31;;;;;;;4.32;3.95;;;;;;;21.17;60.73;99831.25;4437153;32;33634;-80
2022/08/02 03:49:01;;;;;;;12.43;4.75;;;;;;;21.11;60.91;99821.91;4428240;32;33694;-80
2022/08/02 03:51:29;;;;;;;4.35;4.00;;;;;;;21.11;60.92;99821.91;4425377;32;34250;-80
2022/08/02 03:53:56;;;;;;;5.20;3.97;;;;;;;20.93;61.52;99828.88;4434570;32;33090;-79
2022/08/02 03:56:24;;;;;;;5.22;4.03;;;;;;;20.92;61.72;99838.75;4431638;32;33414;-80
2022/08/02 03:59:13;;;;;;;9.88;4.25;;;;;;;20.97;61.45;99838.38;4411810;32;32947;-79
2022/08/02 04:01:41;;;;;;;4.57;3.70;;;;;;;21.16;61.13;99827.72;4431481;32;32385;-80
2022/08/02 04:04:09;;;;;;;5.80;4.78;;;;;;;21.15;61.44;99842.13;4435098;32;33118;-80
2022/08/02 04:06:37;;;;;;;6.30;4.50;;;;;;;21.30;61.37;99839.94;4424188;32;33821;-80
2022/08/02 04:09:09;;;;;;;5.60;5.00;;;;;;;21.33;61.58;99836.19;4423647;32;33872;-80
2022/08/02 04:11:37;;;;;;;5.53;4.12;;;;;;;21.43;61.35;99837.06;4434544;32;34491;-80
2022/08/02 04:14:07;;;;;;;5.82;5.10;;;;;;;21.58;60.96;99841.09;4427939;32;33289;-80
2022/08/02 04:17:02;;;;;;;6.20;4.62;;;;;;;21.70;60.45;99844.53;4422617;32;33147;-80
2022/08/02 04:19:47;;;;;;;7.57;4.80;;;;;;;21.83;60.41;99844.25;4417895;32;33785;-81
2022/08/02 04:22:18;;;;;;;9.15;4.40;;;;;;;21.90;60.09;99845.44;4420621;32;33111;-80
2022/08/02 04:24:50;;;;;;;6.40;4.65;;;;;;;21.96;59.97;99839.47;4434453;32;33010;-80
2022/08/02 04:27:19;;;;;;;10.57;4.50;;;;;;;22.24;59.42;99849.47;4433579;32;33279;-80
2022/08/02 04:30:07;;;;;;;5.00;4.32;;;;;;;22.32;59.39;99856.00;4442046;32;33699;-80
2022/08/02 04:32:35;;;;;;;5.12;4.25;;;;;;;22.27;59.81;99852.88;4439544;32;32322;-79
2022/08/02 04:35:04;;;;;;;4.85;4.35;;;;;;;22.42;59.65;99857.69;4439657;32;33822;-80
2022/08/02 04:37:48;;;;;;;5.00;4.20;;;;;;;22.66;58.00;99859.94;4441296;32;33910;-80
2022/08/02 04:40:36;;;;;;;5.00;4.22;;;;;;;22.55;58.53;99853.84;4440743;32;33997;-80
2022/08/02 04:43:04;;;;;;;7.53;4.75;;;;;;;22.56;58.02;99856.41;4438045;32;33245;-80
2022/08/02 04:45:32;;;;;;;4.53;4.12;;;;;;;22.52;58.07;99852.31;4439457;32;34010;-80
2022/08/02 04:48:00;;;;;;;8.02;4.20;;;;;;;22.84;58.09;99851.16;4437933;32;34009;-80
2022/08/02 04:50:32;;;;;;;;;;;;;;;22.97;58.37;99846.31;4440522;32;34693;-79
2022/08/02 04:53:00;;;;;;;6.78;4.05;;;;;;;23.04;57.92;99860.06;4441630;32;33833;-80
2022/08/02 04:55:28;;;;;;;7.90;4.70;;;;;;;23.07;57.88;99857.06;4438593;32;33111;-80
2022/08/02 04:57:57;;;;;;;4.97;4.22;;;;;;;23.06;57.56;99858.06;4438757;32;32509;-80
2022/08/02 05:00:26;;;;;;;4.72;4.15;;;;;;;23.22;57.36;99853.78;4438692;32;33580;-80
2022/08/02 05:02:58;;;;;;;6.53;4.40;;;;;;;23.33;56.64;99858.13;4436847;32;33497;-80
2022/08/02 05:05:27;;;;;;;8.32;4.03;;;;;;;23.44;56.41;99871.41;4437681;32;33234;-79
2022/08/02 05:07:54;;;;;;;7.87;4.80;;;;;;;23.34;56.15;99877.84;4422195;32;32914;-79
2022/08/02 05:10:22;;;;;;;8.45;3.90;;;;;;;23.49;55.80;99874.50;4427556;32;33167;-79
2022/08/02 05:12:50;;;;;;;13.52;3.72;;;;;;;23.58;55.53;99877.31;4436635;32;33429;-80
2022/08/02 05:15:18;;;;;;;4.40;3.87;;;;;;;23.58;55.86;99886.25;4440775;32;33672;-80
2022/08/02 05:17:47;;;;;;;5.68;3.30;;;;;;;23.85;55.53;99887.31;4427749;32;34650;-80
2022/08/02 05:20:19;;;;;;;6.35;3.15;;;;;;;23.90;54.08;99887.69;4441642;32;33888;-80
2022/08/02 05:22:46;;;;;;;4.53;3.80;;;;;;;24.08;53.72;99885.88;4440849;32;33549;-80
2022/08/02 05:25:14;;;;;;;3.65;3.33;;;;;;;24.15;53.46;99886.97;4440382;32;33319;-81
2022/08/02 05:27:42;;;;;;;4.72;3.45;;;;;;;24.50;52.73;99888.91;4439110;32;33472;-80
2022/08/02 05:30:10;;;;;;;6.32;3.45;;;;;;;24.83;50.92;99891.88;4433733;32;34788;-80
2022/08/02 05:32:49;;;;;;;4.22;3.50;;;;;;;24.83;50.19;99899.09;4453601;32;33496;-80
2022/08/02 05:35:19;;;;;;;3.85;3.05;;;;;;;24.77;50.68;99904.13;4438750;32;31715;-80
2022/08/02 05:37:50;;;;;;;5.30;3.15;;;;;;;24.69;51.53;99900.53;4440279;32;33535;-80
2022/08/02 05:40:19;;;;;;;5.60;3.72;;;;;;;24.67;51.29;99899.81;4436181;32;33620;-80
2022/08/02 05:42:53;;;;;;;5.82;3.60;;;;;;;25.07;51.84;99896.66;4439822;32;34409;-80
2022/08/02 05:45:21;;;;;;;5.85;3.95;;;;;;;25.24;51.02;99906.56;4435781;32;31143;-82
2022/08/02 05:47:49;;;;;;;5.95;3.72;;;;;;;25.34;50.31;99905.59;4440610;32;33688;-80
2022/08/02 05:50:18;;;;;;;4.20;2.87;;;;;;;25.46;50.59;99915.16;4454592;32;33939;-80
2022/08/02 05:52:51;;;;;;;3.53;2.92;;;;;;;25.45;51.30;99916.16;4426118;32;33759;-80
2022/08/02 05:55:40;;;;;;;5.97;3.28;;;;;;;25.67;50.86;99907.47;4441265;32;32809;-80
2022/08/02 05:58:28;;;;;;;6.65;3.17;;;;;;;25.61;49.85;99902.72;4426447;32;33131;-80
2022/08/02 06:00:59;;;;;;;3.53;3.22;;;;;;;25.17;49.77;99908.22;4437432;32;33753;-80
2022/08/02 06:03:35;;;;;;;3.42;3.05;;;;;;;25.49;50.36;99906.69;4445303;32;33864;-80
2022/08/02 06:06:14;;;;;;;2.95;2.70;;;;;;;25.94;49.20;99898.34;4424655;32;32137;-80
2022/08/02 06:08:44;;;;;;;2.95;2.72;;;;;;;25.95;47.64;99905.44;4427234;32;32615;-80
2022/08/02 06:11:17;;;;;;;6.07;2.70;;;;;;;25.87;47.69;99901.84;4440613;32;34341;-80
2022/08/02 06:13:45;;;;;;;3.00;2.72;;;;;;;26.40;46.64;99903.38;4439405;32;33611;-80
2022/08/02 06:16:13;;;;;;;3.45;2.67;;;;;;;26.60;43.24;99904.78;4435832;32;33165;-80
2022/08/02 06:18:42;;;;;;;3.92;2.87;;;;;;;26.68;45.09;99907.50;4418693;32;32802;-87
2022/08/02 06:21:13;;;;;;;2.67;2.47;;;;;;;26.68;45.07;99904.81;4438065;32;33524;-86
2022/08/02 06:24:01;;;;;;;3.67;2.50;;;;;;;26.32;45.27;99906.06;4430618;32;33341;-86
2022/08/02 06:26:29;;;;;;;3.12;2.35;;;;;;;26.27;44.98;99906.56;4425691;32;32412;-86
2022/08/02 06:28:57;;;;;;;2.80;2.60;;;;;;;26.72;44.29;99908.00;4438700;32;33718;-85
2022/08/02 06:31:25;;;;;;;4.65;2.55;;;;;;;26.60;44.48;99910.22;4428647;32;34483;-85
2022/08/02 06:33:56;;;;;;;4.03;2.92;;;;;;;27.11;44.48;99912.75;4428599;32;33189;-85
2022/08/02 06:36:42;;;;;;;2.85;2.42;;;;;;;27.29;43.08;99908.84;4415838;32;32068;-84
2022/08/02 06:39:24;;;;;;;5.97;2.60;;;;;;;27.22;43.34;99907.00;4441366;32;34626;-82
2022/08/02 06:41:55;;;;;;;2.95;2.65;;;;;;;27.39;43.60;99918.66;4425907;32;33976;-84
2022/08/02 06:44:23;;;;;;;2.47;2.28;;;;;;;27.50;43.63;99912.88;4419573;32;32705;-84
2022/08/02 06:47:11;;;;;;;3.70;2.47;;;;;;;27.64;43.65;99914.03;4439538;32;34174;-84
2022/08/02 06:49:40;;;;;;;2.35;2.15;;;;;;;27.89;41.66;99909.41;4439642;32;34510;-84
2022/08/02 06:59:38;;;;;;;6.50;2.42;;;;;;;28.18;41.60;99916.87;4346345;33;32700;-84
2022/08/02 07:02:06;;;;;;;10.05;3.60;;;;;;;28.33;41.02;99915.94;4333986;33;33752;-84
2022/08/02 07:04:38;;;;;;;5.15;2.55;;;;;;;28.36;40.94;99911.22;4334282;33;33915;-84
2022/08/02 07:07:08;;;;;;;5.15;2.35;;;;;;;28.23;42.07;99909.06;4334155;33;34307;-84
2022/08/02 07:09:39;;;;;;;2.47;2.25;;;;;;;28.45;40.83;99904.72;4346094;33;32857;-84
2022/08/02 07:12:33;;;;;;;5.78;2.42;;;;;;;28.54;40.38;99900.94;4346569;33;33944;-84
2022/08/02 07:15:06;;;;;;;2.90;2.20;;;;;;;28.75;39.61;99902.97;4334571;33;33480;-84
2022/08/02 07:17:34;;;;;;;6.87;2.53;;;;;;;28.70;39.83;99891.78;4334305;33;33724;-84
2022/08/02 07:20:04;;;;;;;2.75;2.15;;;;;;;28.53;40.51;99896.50;4334180;33;34091;-83
2022/08/02 07:22:35;;;;;;;2.55;2.35;;;;;;;28.65;39.66;99897.78;4334062;33;33821;-84
2022/08/02 07:25:04;;;;;;;2.53;2.15;;;;;;;28.82;38.50;99893.06;4334058;33;34066;-84
2022/08/02 07:27:33;;;;;;;3.40;2.08;;;;;;;29.00;39.24;99898.19;4333748;33;32363;-84
2022/08/02 07:30:06;;;;;;;4.53;2.30;;;;;;;29.29;38.71;99898.25;4325538;33;32590;-85
2022/08/02 07:32:35;;;;;;;4.60;2.30;;;;;;;29.34;38.68;99887.66;4325228;33;34004;-84
2022/08/02 07:35:03;;;;;;;2.37;2.00;;;;;;;29.26;38.81;99890.47;4332231;33;33274;-84
2022/08/02 07:37:35;;;;;;;4.13;1.87;;;;;;;29.56;38.03;99885.06;4410333;32;32688;-84
2022/08/02 07:40:24;;;;;;;4.20;2.20;;;;;;;29.85;38.00;99884.19;4426254;32;31882;-84
2022/08/02 07:47:17;;;;;;;3.37;2.87;;;;;;;30.29;36.30;99881.44;4325129;33;35376;-84
2022/08/02 07:50:11;;;;;;;2.58;1.92;;;;;;;30.42;35.95;99875.25;4308712;33;33579;-85
2022/08/02 07:52:39;;;;;;;3.53;1.90;;;;;;;30.40;35.54;99876.50;4321579;33;32979;-84
2022/08/02 07:55:11;;;;;;;3.20;2.28;;;;;;;30.25;36.12;99880.13;4324690;33;33059;-84
2022/08/02 07:57:41;;;;;;;2.20;2.00;;;;;;;30.30;37.79;99877.66;4334273;33;33416;-84
2022/08/02 08:00:15;;;;;;;;;;;;;;;30.42;35.32;99880.72;4322955;33;32554;-84
2022/08/02 08:02:47;;;;;;;2.40;1.83;;;;;;;30.44;35.25;99883.25;4329563;33;32518;-84
2022/08/02 08:05:18;;;;;;;5.68;2.80;;;;;;;30.17;36.35;99885.69;4321823;33;32815;-84
2022/08/02 08:07:48;;;;;;;4.87;2.40;;;;;;;30.47;35.61;99875.53;4324679;33;33030;-84
2022/08/02 08:10:16;;;;;;;4.47;1.92;;;;;;;30.44;35.73;99880.53;4332994;33;33685;-84
2022/08/02 08:12:44;;;;;;;2.03;1.92;;;;;;;30.15;36.37;99885.03;4321282;33;34053;-84
2022/08/02 08:15:14;;;;;;;5.37;2.20;;;;;;;30.31;36.44;99890.25;4327151;33;33818;-84
2022/08/02 08:17:42;;;;;;;3.15;1.83;;;;;;;30.52;35.24;99883.94;4320482;33;34097;-84
2022/08/02 08:20:11;;;;;;;3.53;1.83;;;;;;;30.70;35.36;99891.69;4319636;33;33257;-85
2022/08/02 08:22:42;;;;;;;3.05;1.58;;;;;;;30.76;35.66;99888.19;4341157;32;33257;-85
2022/08/02 08:25:11;;;;;;;3.55;1.92;;;;;;;31.00;35.03;99886.97;4424675;32;33256;-84
2022/08/02 08:27:51;;;;;;;3.72;2.15;;;;;;;31.29;34.49;99894.13;4431083;32;33480;-87
2022/08/02 08:30:28;;;;;;;5.43;2.17;;;;;;;30.70;35.56;99891.69;4437861;32;32721;-87
2022/08/02 08:35:42;;;;;;;4.57;2.08;;;;;;;30.84;34.94;99892.69;4449209;32;37586;-87
2022/08/02 08:38:11;;;;;;;4.72;2.25;;;;;;;30.72;33.83;99897.84;4436721;32;34234;-87
2022/08/02 08:40:40;;;;;;;3.95;2.08;;;;;;;31.20;34.64;99892.56;4423346;32;33599;-87
2022/08/02 08:43:12;;;;;;;3.03;2.22;;;;;;;31.01;35.70;99895.97;4423412;32;33377;-87
2022/08/02 08:45:51;;;;;;;4.45;2.90;;;;;;;31.03;34.62;99893.87;4441110;32;33514;-87
2022/08/02 08:48:24;;;;;;;2.45;2.10;;;;;;;31.54;32.68;99897.22;4425381;32;33243;-87
2022/08/02 08:51:14;;;;;;;3.10;2.03;;;;;;;31.19;33.81;99893.59;4447587;32;34099;-87
2022/08/02 08:53:43;;;;;;;2.22;2.03;;;;;;;31.76;32.93;99895.25;4420359;32;32461;-87
2022/08/02 08:56:11;;;;;;;8.05;1.83;;;;;;;31.83;32.53;99896.16;4438157;32;33580;-88
2022/08/02 08:58:46;;;;;;;3.85;1.73;;;;;;;32.11;32.99;99898.81;4439038;32;34509;-88
2022/08/02 09:01:16;;;;;;;4.60;2.12;;;;;;;32.06;31.10;99898.56;4450834;32;33517;-88
2022/08/02 09:03:45;;;;;;;3.47;1.90;;;;;;;32.24;31.87;99898.00;4424993;32;31698;-87
2022/08/02 09:06:13;;;;;;;3.53;2.20;;;;;;;32.46;31.53;99898.72;4418512;32;33286;-88
2022/08/02 09:08:41;;;;;;;1.55;1.45;;;;;;;32.58;31.04;99894.34;4437781;32;34309;-87
2022/08/02 09:11:15;;;;;;;2.00;1.10;;;;;;;32.68;30.59;99899.41;4436602;32;33347;-89
2022/08/02 09:13:51;;;;;;;4.15;0.98;;;;;;;32.73;30.04;99896.88;4427001;32;32456;-89
2022/08/02 09:16:36;;;;;;;1.55;1.05;;;;;;;32.87;28.21;99893.09;4428208;32;32665;-89
2022/08/02 09:19:24;;;;;;;1.08;1.02;;;;;;;32.45;27.74;99898.94;4422859;32;33822;-89
2022/08/02 09:22:06;;;;;;;1.58;1.35;;;;;;;32.23;29.40;99901.75;4438406;32;33123;-89
2022/08/02 09:24:44;;;;;;;1.10;1.00;;;;;;;32.19;29.87;99897.78;4435714;32;33110;-85
2022/08/02 09:27:18;;;;;;;1.05;0.95;;;;;;;32.37;28.43;99898.06;4434143;32;32328;-85
2022/08/02 09:29:52;;;;;;;1.20;1.10;;;;;;;32.72;28.20;99891.63;4420710;32;33272;-85
2022/08/02 09:35:43;;;;;;;6.70;0.90;;;;;;;32.78;28.32;99894.34;4419188;32;33992;-86
2022/08/02 09:38:34;;;;;;;1.12;1.02;;;;;;;32.72;27.77;99888.88;4418769;32;33931;-86
2022/08/02 09:41:04;;;;;;;1.40;1.23;;;;;;;32.47;28.57;99897.66;4420951;32;34851;-86
2022/08/02 09:43:38;;;;;;;3.15;1.45;;;;;;;32.73;28.06;99891.41;4416525;32;33684;-86
2022/08/02 09:46:29;;;;;;;3.58;1.02;;;;;;;32.66;28.78;99887.81;4429706;32;32579;-87
2022/08/02 09:49:08;;;;;;;7.97;1.17;;;;;;;32.54;29.81;99897.69;4414202;32;34659;-86
2022/08/02 09:51:49;;;;;;;2.05;0.98;;;;;;;32.78;28.17;99888.88;4409498;32;33344;-86
2022/08/02 09:54:20;;;;;;;1.80;1.12;;;;;;;32.71;29.21;99887.19;4420890;32;32239;-87
2022/08/02 09:56:52;;;;;;;3.20;1.10;;;;;;;33.02;28.33;99883.88;4405434;32;33491;-86
2022/08/02 09:59:28;;;;;;;1.77;1.50;;;;;;;33.00;28.23;99880.53;4433244;32;33094;-86
2022/08/02 10:01:59;;;;;;;2.33;1.67;;;;;;;33.32;27.75;99879.63;4409468;32;32724;-86
2022/08/02 10:04:49;;;;;;;1.92;1.70;;;;;;;33.32;28.31;99870.56;4419976;32;33910;-85
2022/08/02 10:10:00;;;;;;;1.58;1.25;;;;;;;33.07;30.64;99867.66;4407107;32;33123;-86
2022/08/02 10:12:35;;;;;;;1.55;1.25;;;;;;;33.45;28.31;99872.47;4418814;32;31694;-86
2022/08/02 10:15:07;;;;;;;3.45;1.27;;;;;;;33.44;28.66;99868.91;4404693;32;32749;-86
2022/08/02 10:17:43;;;;;;;1.70;1.40;;;;;;;33.23;29.33;99871.84;4404769;32;32607;-86
2022/08/02 10:20:16;;;;;;;4.35;1.65;;;;;;;33.26;29.03;99864.06;4419482;32;33575;-86
2022/08/02 10:22:50;;;;;;;4.07;2.78;;;;;;;33.07;30.39;99864.94;4418683;32;34540;-86
2022/08/02 10:25:27;;;;;;;2.30;1.75;;;;;;;32.58;30.50;99860.69;4412222;32;32728;-86
2022/08/02 10:27:57;;;;;;;3.28;1.70;;;;;;;32.50;33.08;99861.72;4405484;32;33065;-86
2022/08/02 10:33:18;;;;;;;1.60;1.42;;;;;;;33.29;29.56;99854.59;4420216;32;34126;-86
2022/08/02 10:35:50;;;;;;;2.10;1.62;;;;;;;33.49;29.71;99857.31;4425631;32;33981;-85
2022/08/02 10:38:35;;;;;;;2.00;1.73;;;;;;;33.52;27.93;99860.47;4419893;32;32398;-85
2022/08/02 10:41:15;;;;;;;1.87;1.48;;;;;;;33.13;30.70;99853.12;4418982;32;32951;-85
2022/08/02 10:43:50;;;;;;;1.90;1.70;;;;;;;32.89;29.81;99846.38;4418728;32;33873;-85
2022/08/02 10:46:35;;;;;;;4.45;1.55;;;;;;;33.14;29.90;99849.37;4420844;32;32366;-86
2022/08/02 10:49:07;;;;;;;1.55;1.45;;;;;;;33.07;29.61;99848.50;4409447;32;32260;-86
2022/08/02 10:52:01;;;;;;;3.58;1.58;;;;;;;33.77;28.38;99852.38;4420759;32;33513;-86
2022/08/02 10:54:30;;;;;;;2.20;1.30;;;;;;;33.66;27.42;99843.97;4410647;32;34417;-86
2022/08/02 10:57:14;;;;;;;3.08;1.50;;;;;;;33.17;28.36;99854.38;4428932;32;33142;-86
2022/08/02 11:00:12;;;;;;;5.78;1.60;;;;;;;32.91;28.59;99848.97;4403487;32;33635;-86
2022/08/02 11:02:47;;;;;;;3.22;1.67;;;;;;;32.91;28.95;99849.81;4428979;32;34255;-86
2022/08/02 11:08:21;;;;;;;5.97;2.12;;;;;;;32.64;29.73;99846.19;4430055;32;32684;-85
2022/08/02 11:10:49;;;;;;;2.60;1.20;;;;;;;32.54;29.48;99849.31;4417184;32;32959;-85
2022/08/02 11:13:19;;;;;;;2.53;1.62;;;;;;;32.34;29.34;99849.28;4425055;32;33615;-85
2022/08/02 11:16:05;;;;;;;3.30;1.62;;;;;;;32.45;30.10;99844.28;4420142;32;33606;-85
2022/08/02 11:18:50;;;;;;;1.75;1.52;;;;;;;32.50;30.84;99847.22;4417486;32;34215;-86
2022/08/02 11:21:27;;;;;;;2.00;1.55;;;;;;;32.45;29.49;99839.66;4419817;32;32996;-85
2022/08/02 11:24:23;;;;;;;4.82;1.55;;;;;;;32.49;30.77;99835.44;4405039;32;33576;-86
2022/08/02 11:27:04;;;;;;;3.33;1.50;;;;;;;32.82;30.01;99840.94;4431760;32;34703;-86
2022/08/02 11:29:40;;;;;;;3.37;1.85;;;;;;;32.45;30.67;99844.28;4432072;32;35025;-86
2022/08/02 11:32:21;;;;;;;3.33;1.37;;;;;;;32.40;30.84;99842.16;4435726;32;30504;-86
2022/08/02 11:35:02;;;;;;;2.42;1.70;;;;;;;32.42;30.18;99839.22;4433803;32;33093;-86
2022/08/02 11:37:36;;;;;;;2.20;1.52;;;;;;;32.21;30.55;99846.50;4419320;32;34055;-86
2022/08/02 11:40:11;;;;;;;1.20;1.10;;;;;;;32.29;29.96;99840.84;4418190;32;32983;-86
2022/08/02 11:42:50;;;;;;;2.70;1.45;;;;;;;32.25;30.52;99836.84;4423204;32;32459;-85
2022/08/02 11:45:25;;;;;;;1.77;1.67;;;;;;;32.41;29.89;99832.06;4427595;32;33916;-85
2022/08/02 11:47:58;;;;;;;2.70;1.73;;;;;;;32.76;33.49;99835.44;4423161;32;33349;-90
2022/08/02 11:50:28;;;;;;;3.08;1.45;;;;;;;33.27;28.37;99827.44;4440732;32;33149;-85
2022/08/02 11:52:59;;;;;;;1.50;1.40;;;;;;;33.25;32.36;99834.19;4422833;32;32125;-85
2022/08/02 11:55:31;;;;;;;1.73;1.48;;;;;;;33.69;28.69;99827.97;4417114;32;32667;-86
2022/08/02 11:58:00;;;;;;;;;;;;;;;33.78;26.52;99829.41;4447672;32;34066;-85
2022/08/02 12:00:35;;;;;;;5.43;2.30;;;;;;;33.42;27.46;99832.66;4428189;32;33943;-85
2022/08/02 12:03:07;;;;;;;2.10;1.35;;;;;;;32.94;28.45;99827.47;4424737;32;32634;-85
2022/08/02 12:05:48;;;;;;;2.10;1.40;;;;;;;32.13;29.79;99835.75;4435041;32;33808;-85
2022/08/02 12:08:24;;;;;;;2.70;1.45;;;;;;;32.01;30.47;99842.88;4434164;32;33756;-85
2022/08/02 12:10:56;;;;;;;2.20;1.67;;;;;;;31.85;30.58;99836.72;4436337;32;33559;-85
2022/08/02 12:13:48;;;;;;;1.58;1.45;;;;;;;31.89;30.87;99841.78;4433039;32;33514;-85
2022/08/02 12:19:26;;;;;;;1.67;1.35;;;;;;;31.72;30.97;99839.38;4445454;32;33668;-84
2022/08/02 12:22:19;;;;;;;3.90;1.63;;;;;;;31.79;31.01;99840.22;4436604;32;34448;-85
2022/08/02 12:24:55;;;;;;;1.73;1.42;;;;;;;32.20;31.34;99833.06;4424128;32;32464;-85
2022/08/02 12:27:32;;;;;;;1.75;1.25;;;;;;;32.20;30.58;99825.69;4429921;32;34601;-85
2022/08/02 12:30:17;;;;;;;1.73;1.10;;;;;;;32.46;30.71;99827.66;4433559;32;33926;-85
2022/08/02 12:33:09;;;;;;;1.75;1.10;;;;;;;32.53;29.83;99824.94;4434919;32;33568;-85
2022/08/02 12:35:44;;;;;;;1.42;1.33;;;;;;;32.64;29.66;99818.84;4446627;32;33894;-85
2022/08/02 12:38:27;;;;;;;1.30;1.20;;;;;;;32.33;30.94;99812.06;4430450;32;34468;-85
2022/08/02 12:41:12;;;;;;;1.73;1.33;;;;;;;32.39;30.33;99807.69;4433538;32;34777;-85
2022/08/02 12:44:01;;;;;;;1.02;0.80;;;;;;;32.70;34.61;99809.78;4424967;32;33489;-85
2022/08/02 12:46:33;;;;;;;1.02;0.95;;;;;;;33.55;27.87;99818.13;4422791;32;31971;-85
2022/08/02 12:49:19;;;;;;;1.48;1.02;;;;;;;33.52;27.41;99807.59;4433378;32;33694;-86
2022/08/02 12:51:49;;;;;;;1.23;1.12;;;;;;;33.42;28.28;99799.81;4444842;32;33538;-85
2022/08/02 12:54:31;;;;;;;1.35;1.12;;;;;;;33.33;28.31;99810.16;4433172;32;33754;-85
2022/08/02 12:57:15;;;;;;;2.03;1.10;;;;;;;33.08;28.63;99812.72;4427771;32;33164;-85